Time;durP1;ratioP1;P1;durP2;ratioP2;P2;SDS_P1;SDS_P2;PMS_P1;PMS_P2;Temp;Humidity;BMP_temperature;BMP_pressure;BME280_temperature;BME280_humidity;BME280_pressure;Samples;Min_cycle;Max_cycle;Signal;HPM_P1;HPM_P2
2021/08/29 00:01:59;;;;;;;;;;;25.70;99.90;;;;;;1812887;78;20142;-90
2021/08/29 00:04:29;;;;;;;;;;;25.70;99.90;;;;;;1823384;78;20129;-89
2021/08/29 00:06:59;;;;;;;;;;;25.70;99.90;;;;;;1817895;78;20200;-90
2021/08/29 00:09:28;;;;;;;;;;;25.80;99.90;;;;;;1783566;79;20196;-90
2021/08/29 00:11:58;;;;;;;;;;;25.80;99.90;;;;;;1815544;78;20488;-90
2021/08/29 00:14:27;;;;;;;;;;;25.80;99.90;;;;;;1812042;79;20190;-90
2021/08/29 00:16:58;;;;;;;;;;;25.80;99.90;;;;;;1818444;78;20225;-88
2021/08/29 00:19:28;;;;;;;;;;;25.80;99.90;;;;;;1820494;78;20499;-89
2021/08/29 00:21:57;;;;;;;;;;;25.80;99.90;;;;;;1796283;78;20163;-89
2021/08/29 00:24:30;;;;;;;;;;;25.90;99.90;;;;;;1831527;78;20207;-89
2021/08/29 00:27:00;;;;;;;;;;;25.80;99.90;;;;;;1815610;78;20189;-89
2021/08/29 00:29:57;;;;;;;;;;;25.80;99.90;;;;;;1782928;79;20167;-89
2021/08/29 00:32:17;;;;;;;;;;;25.80;99.90;;;;;;1816352;78;20268;-89
2021/08/29 00:34:47;;;;;;;;;;;25.90;99.90;;;;;;1813877;78;20208;-87
2021/08/29 00:37:16;;;;;;;;;;;25.90;99.90;;;;;;1815994;78;20217;-90
2021/08/29 00:39:45;;;;;;;;;;;26.00;99.90;;;;;;1814043;78;20193;-89
2021/08/29 00:42:15;;;;;;;;;;;26.10;99.90;;;;;;1823235;78;20255;-90
2021/08/29 00:44:45;;;;;;;;;;;26.10;99.90;;;;;;1783452;79;20171;-89
2021/08/29 00:47:14;;;;;;;;;;;26.10;99.90;;;;;;1824178;78;20171;-90
2021/08/29 00:49:44;;;;;;;;;;;26.10;99.90;;;;;;1815813;78;20517;-89
2021/08/29 00:52:13;;;;;;;;;;;26.10;99.90;;;;;;1809109;78;20252;-89
2021/08/29 00:54:43;;;;;;;;;;;26.10;99.90;;;;;;1779777;80;20176;-90
2021/08/29 00:57:13;;;;;;;;;;;26.10;99.90;;;;;;1809845;78;20283;-89
2021/08/29 00:59:43;;;;;;;;;;;26.20;99.90;;;;;;1820968;78;20233;-89
2021/08/29 01:02:14;;;;;;;;;;;26.20;99.90;;;;;;1808183;78;20189;-88
2021/08/29 01:04:45;;;;;;;;;;;26.20;99.90;;;;;;1785692;79;20203;-90
2021/08/29 01:07:16;;;;;;;;;;;26.20;99.90;;;;;;1813768;78;20158;-88
2021/08/29 01:09:47;;;;;;;;;;;26.20;99.90;;;;;;1814353;78;20176;-90
2021/08/29 01:12:17;;;;;;;;;;;26.20;99.90;;;;;;1786303;79;20295;-89
2021/08/29 01:14:48;;;;;;;;;;;26.30;99.90;;;;;;1760085;80;20599;-89
2021/08/29 01:17:18;;;;;;;;;;;26.30;99.90;;;;;;1754771;82;20225;-89
2021/08/29 01:19:49;;;;;;;;;;;26.40;99.90;;;;;;1763586;80;20757;-89
2021/08/29 01:22:20;;;;;;;;;;;26.40;99.90;;;;;;1757148;80;20240;-89
2021/08/29 01:24:50;;;;;;;;;;;26.40;99.90;;;;;;1824049;78;20178;-89
2021/08/29 01:27:21;;;;;;;;;;;26.40;99.90;;;;;;1811788;78;20173;-89
2021/08/29 01:29:51;;;;;;;;;;;26.50;99.90;;;;;;1815830;78;20267;-90
2021/08/29 01:32:24;;;;;;;;;;;26.50;99.90;;;;;;1804540;79;20187;-89
2021/08/29 01:34:54;;;;;;;;;;;26.60;99.90;;;;;;1757686;80;20574;-89
2021/08/29 01:37:24;;;;;;;;;;;26.60;99.90;;;;;;1810870;78;20185;-89
2021/08/29 01:39:57;;;;;;;;;;;26.70;99.90;;;;;;1810302;78;20476;-89
2021/08/29 01:42:27;;;;;;;;;;;26.80;99.90;;;;;;1807514;78;20497;-88
2021/08/29 01:44:57;;;;;;;;;;;26.90;99.90;;;;;;1809094;79;20166;-89
2021/08/29 01:47:27;;;;;;;;;;;26.90;99.90;;;;;;1807780;78;20257;-88
2021/08/29 01:50:02;;;;;;;;;;;27.00;99.90;;;;;;1811560;78;20256;-89
2021/08/29 01:52:37;;;;;;;;;;;27.00;99.90;;;;;;1815519;78;20218;-88
2021/08/29 01:58:16;;;;;;;;;;;27.00;99.90;;;;;;1755257;80;20261;-89
2021/08/29 02:00:48;;;;;;;;;;;27.00;99.90;;;;;;1757230;80;20347;-88
2021/08/29 02:03:24;;;;;;;;;;;27.00;99.90;;;;;;1736719;81;20304;-88
2021/08/29 02:05:58;;;;;;;;;;;27.00;99.90;;;;;;1703243;83;20339;-88
2021/08/29 02:08:38;;;;;;;;;;;27.00;99.90;;;;;;1750503;80;20199;-90
2021/08/29 02:11:12;;;;;;;;;;;27.10;99.90;;;;;;1748459;82;20259;-89
2021/08/29 02:13:48;;;;;;;;;;;27.10;99.80;;;;;;1753813;79;20590;-89
2021/08/29 02:22:21;;;;;;;;;;;27.50;99.00;;;;;;1827669;76;20203;-89
2021/08/29 02:24:50;;;;;;;;;;;27.50;98.90;;;;;;1809177;78;20140;-90
2021/08/29 02:27:22;;;;;;;;;;;27.60;98.90;;;;;;1808619;78;20325;-88
2021/08/29 02:29:52;;;;;;;;;;;27.60;98.70;;;;;;1803185;78;20195;-88
2021/08/29 02:32:22;;;;;;;;;;;27.60;98.50;;;;;;1808201;78;20226;-89
2021/08/29 02:34:52;;;;;;;;;;;27.50;98.40;;;;;;1811851;78;20175;-88
2021/08/29 02:37:41;;;;;;;;;;;27.50;98.70;;;;;;1821336;78;20240;-90
2021/08/29 02:40:12;;;;;;;;;;;27.50;98.60;;;;;;1818960;77;20267;-89
2021/08/29 02:42:42;;;;;;;;;;;27.40;98.50;;;;;;1817520;77;20239;-91
2021/08/29 02:45:13;;;;;;;;;;;27.40;98.00;;;;;;1827448;77;20178;-89
2021/08/29 02:47:43;;;;;;;;;;;27.60;98.30;;;;;;1820033;78;20272;-90
2021/08/29 02:50:13;;;;;;;;;;;27.70;98.10;;;;;;1820010;78;20290;-89
2021/08/29 02:52:43;;;;;;;;;;;27.90;98.10;;;;;;1828430;75;20551;-90
2021/08/29 02:55:14;;;;;;;;;;;28.20;98.10;;;;;;1870828;75;20224;-90
2021/08/29 02:57:45;;;;;;;;;;;28.40;96.70;;;;;;1872300;75;20239;-89
2021/08/29 03:00:15;;;;;;;;;;;28.60;96.30;;;;;;1873191;75;20200;-90
2021/08/29 03:02:45;;;;;;;;;;;28.80;95.90;;;;;;1867157;75;20168;-90
2021/08/29 03:05:15;;;;;;;;;;;28.80;95.60;;;;;;1837441;77;20228;-87
2021/08/29 03:07:44;;;;;;;;;;;28.80;96.70;;;;;;1834625;78;20220;-90
2021/08/29 03:10:15;;;;;;;;;;;28.80;97.10;;;;;;1873258;76;20252;-89
2021/08/29 03:12:45;;;;;;;;;;;28.70;97.00;;;;;;1836984;77;20614;-88
2021/08/29 03:15:15;;;;;;;;;;;28.60;96.90;;;;;;1873546;75;20220;-89
2021/08/29 03:17:48;;;;;;;;;;;28.60;96.60;;;;;;1840843;77;20191;-89
2021/08/29 03:20:24;;;;;;;;;;;28.60;96.20;;;;;;1840918;77;20213;-90
2021/08/29 03:22:54;;;;;;;;;;;28.60;96.30;;;;;;1879808;75;20171;-90
2021/08/29 03:25:24;;;;;;;;;;;28.80;96.10;;;;;;1859888;77;20500;-90
2021/08/29 03:27:53;;;;;;;;;;;28.80;96.90;;;;;;1899959;75;20203;-88
2021/08/29 03:30:23;;;;;;;;;;;28.90;96.80;;;;;;1858965;77;20439;-90
2021/08/29 03:32:53;;;;;;;;;;;28.80;94.70;;;;;;1896600;75;20231;-91
2021/08/29 03:35:23;;;;;;;;;;;28.90;95.50;;;;;;1861068;76;20543;-89
2021/08/29 03:37:52;;;;;;;;;;;29.00;96.20;;;;;;1894315;74;20191;-89
2021/08/29 03:40:23;;;;;;;;;;;29.10;95.10;;;;;;1899859;75;20167;-89
2021/08/29 03:42:53;;;;;;;;;;;29.20;95.70;;;;;;1858836;77;20167;-90
2021/08/29 03:45:23;;;;;;;;;;;29.20;94.10;;;;;;1899619;75;20270;-90
2021/08/29 03:47:53;;;;;;;;;;;29.10;94.90;;;;;;1897409;75;20238;-89
2021/08/29 03:50:24;;;;;;;;;;;29.10;95.50;;;;;;1861900;75;20116;-89
2021/08/29 03:52:54;;;;;;;;;;;29.00;95.70;;;;;;1897409;75;20195;-89
2021/08/29 03:55:24;;;;;;;;;;;29.10;95.30;;;;;;1860744;77;20223;-90
2021/08/29 03:57:55;;;;;;;;;;;29.20;94.20;;;;;;1899681;75;20230;-91
2021/08/29 04:00:25;;;;;;;;;;;29.30;94.80;;;;;;1903706;74;20163;-78
2021/08/29 04:02:55;;;;;;;;;;;29.30;95.70;;;;;;1896772;75;20128;-78
2021/08/29 04:05:26;;;;;;;;;;;29.50;95.50;;;;;;1898766;75;20203;-78
2021/08/29 04:07:56;;;;;;;;;;;29.50;94.20;;;;;;1858787;77;20167;-78
2021/08/29 04:10:26;;;;;;;;;;;29.50;93.90;;;;;;1897248;75;20219;-77
2021/08/29 04:12:56;;;;;;;;;;;29.60;93.50;;;;;;1899053;74;20234;-79
2021/08/29 04:15:26;;;;;;;;;;;29.70;93.70;;;;;;1861702;76;20199;-78
2021/08/29 04:17:56;;;;;;;;;;;29.70;93.30;;;;;;1900230;74;20215;-79
2021/08/29 04:20:26;;;;;;;;;;;29.70;93.60;;;;;;1900020;75;20206;-77
2021/08/29 04:22:56;;;;;;;;;;;29.60;93.70;;;;;;1888934;75;20164;-78
2021/08/29 04:25:25;;;;;;;;;;;29.60;93.60;;;;;;1866508;77;20228;-77
2021/08/29 04:27:55;;;;;;;;;;;29.60;93.70;;;;;;1872204;77;20179;-77
2021/08/29 04:30:25;;;;;;;;;;;29.50;93.80;;;;;;1873297;75;20493;-77
2021/08/29 04:32:55;;;;;;;;;;;29.50;94.20;;;;;;1870826;75;20230;-78
2021/08/29 04:35:25;;;;;;;;;;;29.60;94.40;;;;;;1878202;75;20232;-77
2021/08/29 04:37:56;;;;;;;;;;;29.70;93.80;;;;;;1871640;75;20169;-75
2021/08/29 04:40:25;;;;;;;;;;;29.80;93.60;;;;;;1871343;75;20189;-77
2021/08/29 04:42:55;;;;;;;;;;;29.90;93.20;;;;;;1869733;75;20219;-76
2021/08/29 04:45:25;;;;;;;;;;;29.90;93.00;;;;;;1868513;75;20221;-77
2021/08/29 04:47:55;;;;;;;;;;;30.00;93.50;;;;;;1869840;76;20217;-76
2021/08/29 04:50:24;;;;;;;;;;;29.90;93.70;;;;;;1871613;75;20176;-76
2021/08/29 04:52:54;;;;;;;;;;;29.80;93.70;;;;;;1872999;75;20207;-76
2021/08/29 04:55:23;;;;;;;;;;;29.90;93.70;;;;;;1872750;75;20164;-76
2021/08/29 04:57:53;;;;;;;;;;;29.90;92.50;;;;;;1871091;77;20489;-76
2021/08/29 05:00:23;;;;;;;;;;;30.00;93.20;;;;;;1865302;76;20232;-77
2021/08/29 05:02:53;;;;;;;;;;;30.10;92.30;;;;;;1869711;75;20207;-76
2021/08/29 05:05:22;;;;;;;;;;;30.10;91.40;;;;;;1868259;75;20156;-77
2021/08/29 05:07:52;;;;;;;;;;;30.10;91.30;;;;;;1868203;75;20267;-76
2021/08/29 05:10:22;;;;;;;;;;;30.10;92.50;;;;;;1871601;75;20218;-77
2021/08/29 05:12:52;;;;;;;;;;;30.10;92.20;;;;;;1873350;75;20495;-77
2021/08/29 05:15:21;;;;;;;;;;;30.10;92.40;;;;;;1871466;77;20195;-77
2021/08/29 05:17:50;;;;;;;;;;;30.10;92.30;;;;;;1869384;76;20222;-77
2021/08/29 05:20:21;;;;;;;;;;;30.00;92.50;;;;;;1870092;74;20192;-75
2021/08/29 05:22:52;;;;;;;;;;;30.00;92.80;;;;;;1870734;77;20188;-75
2021/08/29 05:25:21;;;;;;;;;;;30.00;92.60;;;;;;1866241;75;20850;-75
2021/08/29 05:27:51;;;;;;;;;;;30.00;91.90;;;;;;1869629;75;20152;-75
2021/08/29 05:30:21;;;;;;;;;;;30.10;91.70;;;;;;1857550;75;20176;-76
2021/08/29 05:32:54;;;;;;;;;;;30.30;91.80;;;;;;1863745;76;20150;-75
2021/08/29 05:35:24;;;;;;;;;;;30.50;90.20;;;;;;1864777;75;20236;-76
2021/08/29 05:37:55;;;;;;;;;;;30.70;90.80;;;;;;1865775;75;20208;-76
2021/08/29 05:40:24;;;;;;;;;;;31.00;87.90;;;;;;1865587;77;20236;-77
2021/08/29 05:42:54;;;;;;;;;;;31.20;88.10;;;;;;1865834;77;20161;-77
2021/08/29 05:45:23;;;;;;;;;;;31.40;87.30;;;;;;1866016;77;20251;-74
2021/08/29 05:47:53;;;;;;;;;;;31.60;86.50;;;;;;1864768;77;20954;-75
2021/08/29 05:50:23;;;;;;;;;;;31.70;86.00;;;;;;1865378;77;20768;-76
2021/08/29 05:52:52;;;;;;;;;;;31.80;85.50;;;;;;1865036;77;20228;-76
2021/08/29 05:55:22;;;;;;;;;;;31.90;84.30;;;;;;1866704;76;20476;-75
2021/08/29 05:57:53;;;;;;;;;;;31.90;83.30;;;;;;1864845;77;20486;-75
2021/08/29 06:00:23;;;;;;;;;;;31.90;83.60;;;;;;1866298;77;20242;-76
2021/08/29 06:02:52;;;;;;;;;;;31.90;85.00;;;;;;1866073;76;20237;-76
2021/08/29 06:05:22;;;;;;;;;;;31.90;85.00;;;;;;1865756;75;20199;-75
2021/08/29 06:07:53;;;;;;;;;;;32.00;83.30;;;;;;1866922;75;20223;-76
2021/08/29 06:10:22;;;;;;;;;;;32.10;83.20;;;;;;1866587;75;20261;-75
2021/08/29 06:12:52;;;;;;;;;;;32.20;86.00;;;;;;1868217;77;20195;-76
2021/08/29 06:15:27;;;;;;;;;;;32.30;81.90;;;;;;1869182;76;20161;-77
2021/08/29 06:18:15;;;;;;;;;;;32.30;80.70;;;;;;1868182;76;20250;-76
2021/08/29 06:20:54;;;;;;;;;;;32.30;83.60;;;;;;1830305;78;20293;-77
2021/08/29 06:23:25;;;;;;;;;;;32.30;86.80;;;;;;1815742;78;20205;-76
2021/08/29 06:25:55;;;;;;;;;;;32.10;82.10;;;;;;1825114;79;20517;-77
2021/08/29 06:28:28;;;;;;;;;;;32.10;80.00;;;;;;1820555;79;20555;-76
2021/08/29 06:30:58;;;;;;;;;;;32.00;80.90;;;;;;1819939;79;20395;-76
2021/08/29 06:33:41;;;;;;;;;;;31.90;82.00;;;;;;1804636;79;20180;-75
2021/08/29 06:36:15;;;;;;;;;;;31.80;82.40;;;;;;1815547;79;20257;-75
2021/08/29 06:38:47;;;;;;;;;;;31.70;83.20;;;;;;1822180;79;20270;-77
2021/08/29 06:41:20;;;;;;;;;;;31.90;82.70;;;;;;1815886;79;20600;-76
2021/08/29 06:43:49;;;;;;;;;;;31.90;82.50;;;;;;1810751;79;20133;-77
2021/08/29 06:46:19;;;;;;;;;;;31.90;84.90;;;;;;1818433;79;20466;-73
2021/08/29 06:48:49;;;;;;;;;;;31.80;83.70;;;;;;1808956;79;20226;-77
2021/08/29 06:51:19;;;;;;;;;;;31.70;86.60;;;;;;1811299;79;20213;-76
2021/08/29 06:53:49;;;;;;;;;;;31.60;84.00;;;;;;1821257;78;20271;-77
2021/08/29 06:56:19;;;;;;;;;;;31.50;84.50;;;;;;1823470;78;20217;-74
2021/08/29 06:58:48;;;;;;;;;;;31.40;85.00;;;;;;1816757;77;20137;-74
2021/08/29 07:01:18;;;;;;;;;;;31.40;84.80;;;;;;1820772;77;20273;-75
2021/08/29 07:03:50;;;;;;;;;;;31.40;85.60;;;;;;1815800;77;20219;-76
2021/08/29 07:06:20;;;;;;;;;;;31.50;84.10;;;;;;1825825;77;20184;-77
2021/08/29 07:08:51;;;;;;;;;;;31.60;87.00;;;;;;1836026;77;20228;-77
2021/08/29 07:11:25;;;;;;;;;;;31.60;83.60;;;;;;1823814;77;20491;-76
2021/08/29 07:13:55;;;;;;;;;;;31.70;83.50;;;;;;1825847;77;20159;-77
2021/08/29 07:16:25;;;;;;;;;;;31.70;82.20;;;;;;1810730;79;20144;-76
2021/08/29 07:18:54;;;;;;;;;;;31.80;81.30;;;;;;1823860;77;20526;-76
2021/08/29 07:21:24;;;;;;;;;;;31.90;81.80;;;;;;1818272;78;20453;-78
2021/08/29 07:23:54;;;;;;;;;;;31.90;84.60;;;;;;1819692;77;20192;-77
2021/08/29 07:26:24;;;;;;;;;;;31.90;81.50;;;;;;1836259;77;20151;-77
2021/08/29 07:28:53;;;;;;;;;;;31.90;83.30;;;;;;1824616;78;20474;-77
2021/08/29 07:31:23;;;;;;;;;;;31.90;81.50;;;;;;1829576;78;20277;-76
2021/08/29 07:33:55;;;;;;;;;;;31.90;81.50;;;;;;1833003;77;20175;-75
2021/08/29 07:36:24;;;;;;;;;;;32.00;83.40;;;;;;1827465;78;20191;-76
2021/08/29 07:38:58;;;;;;;;;;;31.90;81.20;;;;;;1826489;78;20264;-76
2021/08/29 07:41:25;;;;;;;;;;;31.90;81.00;;;;;;1830049;78;20193;-76
2021/08/29 07:43:55;;;;;;;;;;;31.90;82.20;;;;;;1827285;78;20211;-74
2021/08/29 07:46:28;;;;;;;;;;;31.80;83.50;;;;;;1828599;78;20218;-75
2021/08/29 07:48:56;;;;;;;;;;;31.80;82.20;;;;;;1830730;77;20172;-76
2021/08/29 07:51:26;;;;;;;;;;;31.80;80.70;;;;;;1828458;78;20197;-76
2021/08/29 07:53:56;;;;;;;;;;;31.90;80.40;;;;;;1832591;77;20458;-76
2021/08/29 07:56:26;;;;;;;;;;;31.90;80.40;;;;;;1869008;76;20255;-77
2021/08/29 07:58:56;;;;;;;;;;;32.00;81.60;;;;;;1871438;76;20795;-78
2021/08/29 08:01:25;;;;;;;;;;;32.10;80.40;;;;;;1879060;76;20541;-76
2021/08/29 08:03:55;;;;;;;;;;;32.10;81.30;;;;;;1871469;75;20291;-76
2021/08/29 08:06:25;;;;;;;;;;;32.10;80.50;;;;;;1873633;76;20184;-76
2021/08/29 08:08:55;;;;;;;;;;;32.10;80.70;;;;;;1866379;75;20224;-76
2021/08/29 08:11:24;;;;;;;;;;;32.10;81.70;;;;;;1862906;76;20217;-76
2021/08/29 08:13:54;;;;;;;;;;;32.10;80.30;;;;;;1869872;76;20595;-76
2021/08/29 08:16:27;;;;;;;;;;;32.10;81.50;;;;;;1867088;75;20271;-78
2021/08/29 08:18:57;;;;;;;;;;;32.00;80.20;;;;;;1866868;76;20232;-74
2021/08/29 08:21:28;;;;;;;;;;;32.10;79.90;;;;;;1864790;77;20587;-76
2021/08/29 08:23:58;;;;;;;;;;;32.00;78.80;;;;;;1856427;75;20266;-81
2021/08/29 08:26:29;;;;;;;;;;;32.00;77.20;;;;;;1865216;75;20128;-76
2021/08/29 08:29:00;;;;;;;;;;;31.90;77.70;;;;;;1824892;78;20233;-77
2021/08/29 08:31:30;;;;;;;;;;;31.80;80.40;;;;;;1836853;77;20211;-77
2021/08/29 08:33:59;;;;;;;;;;;31.80;79.40;;;;;;1832182;77;20191;-77
2021/08/29 08:36:29;;;;;;;;;;;31.80;79.70;;;;;;1848809;76;20133;-77
2021/08/29 08:39:00;;;;;;;;;;;31.80;79.40;;;;;;1817630;78;20183;-76
2021/08/29 08:41:30;;;;;;;;;;;31.80;79.40;;;;;;1847179;77;20509;-76
2021/08/29 08:44:03;;;;;;;;;;;31.80;79.50;;;;;;1849856;77;20195;-76
2021/08/29 08:46:33;;;;;;;;;;;31.80;79.40;;;;;;1848959;76;20171;-75
2021/08/29 08:49:03;;;;;;;;;;;31.80;80.30;;;;;;1850064;76;20590;-75
2021/08/29 08:51:34;;;;;;;;;;;31.80;77.80;;;;;;1865376;75;20184;-75
2021/08/29 08:54:05;;;;;;;;;;;31.70;79.40;;;;;;1867809;75;20267;-77
2021/08/29 08:56:35;;;;;;;;;;;31.70;78.30;;;;;;1864756;75;20579;-76
2021/08/29 08:59:07;;;;;;;;;;;31.60;78.60;;;;;;1870729;75;20179;-76
2021/08/29 09:01:36;;;;;;;;;;;31.60;77.40;;;;;;1868719;75;20206;-78
2021/08/29 09:04:07;;;;;;;;;;;31.60;77.70;;;;;;1867361;75;20449;-78
2021/08/29 09:06:36;;;;;;;;;;;31.60;78.10;;;;;;1864663;76;20468;-76
2021/08/29 09:09:06;;;;;;;;;;;31.60;80.20;;;;;;1865665;75;20140;-75
2021/08/29 09:11:37;;;;;;;;;;;31.50;80.80;;;;;;1863142;75;20176;-75
2021/08/29 09:14:07;;;;;;;;;;;31.40;80.90;;;;;;1864758;77;20196;-79
2021/08/29 09:16:36;;;;;;;;;;;31.40;79.70;;;;;;1865504;77;20167;-77
2021/08/29 09:19:07;;;;;;;;;;;31.30;78.00;;;;;;1868386;77;20478;-77
2021/08/29 09:21:38;;;;;;;;;;;31.30;80.20;;;;;;1868620;77;20163;-77
2021/08/29 09:24:09;;;;;;;;;;;31.40;80.40;;;;;;1866696;77;20488;-76
2021/08/29 09:26:40;;;;;;;;;;;31.30;80.10;;;;;;1859219;77;20183;-78
2021/08/29 09:29:11;;;;;;;;;;;31.30;80.00;;;;;;1896864;74;20191;-76
2021/08/29 09:31:42;;;;;;;;;;;31.40;79.50;;;;;;1858233;76;20203;-77
2021/08/29 09:34:13;;;;;;;;;;;31.40;80.90;;;;;;1894494;75;20163;-79
2021/08/29 09:36:43;;;;;;;;;;;31.40;80.90;;;;;;1875772;76;20195;-77
2021/08/29 09:39:14;;;;;;;;;;;31.40;81.30;;;;;;1852716;76;20239;-77
2021/08/29 09:41:44;;;;;;;;;;;31.50;80.10;;;;;;1855617;77;20270;-76
2021/08/29 09:44:14;;;;;;;;;;;31.50;79.20;;;;;;1855744;76;20270;-77
2021/08/29 09:46:45;;;;;;;;;;;31.50;81.10;;;;;;1854436;77;20210;-78
2021/08/29 09:49:15;;;;;;;;;;;31.50;80.90;;;;;;1854299;76;20176;-78
2021/08/29 09:51:46;;;;;;;;;;;31.50;79.50;;;;;;1855607;76;20238;-75
2021/08/29 09:54:19;;;;;;;;;;;31.50;79.90;;;;;;1859824;76;20434;-77
2021/08/29 09:56:54;;;;;;;;;;;31.50;79.00;;;;;;1842765;77;20165;-76
2021/08/29 09:59:39;;;;;;;;;;;31.40;79.50;;;;;;1904629;74;20210;-76
2021/08/29 10:02:13;;;;;;;;;;;31.50;80.00;;;;;;1858614;76;20572;-78
2021/08/29 10:04:46;;;;;;;;;;;31.40;79.70;;;;;;1903262;74;20197;-78
2021/08/29 10:07:16;;;;;;;;;;;31.40;79.30;;;;;;1905584;74;20492;-79
2021/08/29 10:09:52;;;;;;;;;;;31.40;80.20;;;;;;1862001;76;20238;-78
2021/08/29 10:12:36;;;;;;;;;;;31.40;78.80;;;;;;1902771;74;20242;-77
2021/08/29 10:15:06;;;;;;;;;;;31.40;80.60;;;;;;1904960;74;20174;-76
2021/08/29 10:17:36;;;;;;;;;;;31.40;78.00;;;;;;1845708;77;20244;-79
2021/08/29 10:20:06;;;;;;;;;;;31.40;79.80;;;;;;1895040;74;20117;-78
2021/08/29 10:22:40;;;;;;;;;;;31.30;79.70;;;;;;1861504;76;20223;-79
2021/08/29 10:25:20;;;;;;;;;;;31.30;79.70;;;;;;1861843;76;20157;-76
2021/08/29 10:27:57;;;;;;;;;;;31.30;80.00;;;;;;1809977;77;20206;-78
2021/08/29 10:30:34;;;;;;;;;;;31.30;80.90;;;;;;1871526;75;20158;-79
2021/08/29 10:33:04;;;;;;;;;;;31.30;80.10;;;;;;1870620;76;20525;-78
2021/08/29 10:35:34;;;;;;;;;;;31.30;80.90;;;;;;1875239;75;20125;-76
2021/08/29 10:38:08;;;;;;;;;;;31.20;80.80;;;;;;1873071;76;20120;-77
2021/08/29 10:40:46;;;;;;;;;;;31.20;81.60;;;;;;1871812;75;20198;-77
2021/08/29 10:43:38;;;;;;;;;;;;;;;;;;;;;
2021/08/29 10:46:04;;;;;;;;;;;31.20;81.30;;;;;;1872863;75;20214;-77
2021/08/29 10:48:54;;;;;;;;;;;31.10;81.10;;;;;;1872037;76;20189;-77
2021/08/29 10:51:31;;;;;;;;;;;31.10;81.40;;;;;;1852540;77;20220;-77
2021/08/29 10:54:05;;;;;;;;;;;31.10;80.60;;;;;;1871768;76;20271;-78
2021/08/29 10:56:53;;;;;;;;;;;31.10;80.80;;;;;;1871262;77;20235;-77
2021/08/29 10:59:24;;;;;;;;;;;31.10;81.70;;;;;;1872097;77;20109;-80
2021/08/29 11:08:14;;;;;;;;;;;30.80;84.20;;;;;;1844970;77;20187;-79
2021/08/29 11:11:00;;;;;;;;;;;30.80;84.70;;;;;;1838198;77;20148;-77
2021/08/29 11:13:31;;;;;;;;;;;30.70;85.80;;;;;;1870864;76;20177;-77
2021/08/29 11:16:02;;;;;;;;;;;30.60;86.30;;;;;;1875972;76;20169;-77
2021/08/29 11:18:48;;;;;;;;;;;30.50;87.90;;;;;;1852107;76;20211;-77
2021/08/29 11:21:21;;;;;;;;;;;30.50;88.10;;;;;;1859467;72;20176;-78
2021/08/29 11:23:52;;;;;;;;;;;30.40;88.50;;;;;;1968743;72;20262;-78
2021/08/29 11:26:22;;;;;;;;;;;30.40;89.30;;;;;;1975154;72;20176;-76
2021/08/29 11:28:52;;;;;;;;;;;30.30;90.20;;;;;;1964706;72;20127;-76
2021/08/29 11:31:23;;;;;;;;;;;30.20;90.00;;;;;;1967722;72;20489;-76
2021/08/29 11:33:54;;;;;;;;;;;30.20;90.40;;;;;;1973796;72;20491;-76
2021/08/29 11:36:25;;;;;;;;;;;30.10;90.40;;;;;;1967465;72;20176;-75
2021/08/29 11:38:57;;;;;;;;;;;30.10;90.40;;;;;;1975558;72;20199;-76
2021/08/29 11:41:26;;;;;;;;;;;30.00;90.60;;;;;;1971028;72;20207;-74
2021/08/29 11:43:57;;;;;;;;;;;30.00;90.40;;;;;;1966798;72;20200;-77
2021/08/29 11:46:28;;;;;;;;;;;30.00;90.30;;;;;;1984951;72;20133;-77
2021/08/29 11:48:59;;;;;;;;;;;29.90;90.30;;;;;;1984030;72;20208;-76
2021/08/29 11:51:30;;;;;;;;;;;29.90;90.30;;;;;;1959079;72;20232;-76
2021/08/29 11:54:01;;;;;;;;;;;29.80;90.50;;;;;;1947099;73;20498;-78
2021/08/29 11:56:33;;;;;;;;;;;29.80;90.70;;;;;;1958479;72;20191;-92
2021/08/29 11:59:12;;;;;;;;;;;29.80;90.80;;;;;;1961657;72;20225;-90
2021/08/29 12:01:42;;;;;;;;;;;29.80;90.70;;;;;;1961826;72;20199;-91
2021/08/29 12:04:14;;;;;;;;;;;29.70;90.70;;;;;;1959057;73;20256;-90
2021/08/29 12:06:45;;;;;;;;;;;29.70;90.80;;;;;;1952045;73;20246;-90
2021/08/29 12:09:15;;;;;;;;;;;29.70;91.00;;;;;;1956951;73;20209;-90
2021/08/29 12:11:46;;;;;;;;;;;29.70;90.90;;;;;;1957141;73;20166;-89
2021/08/29 12:14:18;;;;;;;;;;;29.60;91.10;;;;;;1871259;76;20445;-90
2021/08/29 12:16:49;;;;;;;;;;;29.60;91.30;;;;;;1858898;76;20185;-91
2021/08/29 12:19:22;;;;;;;;;;;29.60;91.40;;;;;;1962623;73;20194;-91
2021/08/29 12:21:53;;;;;;;;;;;29.60;91.30;;;;;;1959574;72;20210;-91
2021/08/29 12:24:25;;;;;;;;;;;29.60;91.40;;;;;;1959131;73;20487;-91
2021/08/29 12:26:56;;;;;;;;;;;29.60;91.60;;;;;;1934717;73;20201;-90
2021/08/29 12:29:26;;;;;;;;;;;29.60;91.80;;;;;;1957578;73;20433;-92
2021/08/29 12:31:59;;;;;;;;;;;29.50;91.90;;;;;;1940630;73;20175;-91
2021/08/29 12:34:33;;;;;;;;;;;29.50;91.80;;;;;;1932420;73;20399;-90
2021/08/29 12:37:03;;;;;;;;;;;29.50;91.80;;;;;;1903109;75;20183;-92
2021/08/29 12:39:33;;;;;;;;;;;29.40;91.80;;;;;;1856286;76;20134;-91
2021/08/29 12:42:04;;;;;;;;;;;29.50;91.90;;;;;;1868290;76;20133;-92
2021/08/29 12:44:39;;;;;;;;;;;29.50;92.50;;;;;;1858263;77;20479;-92
2021/08/29 12:47:12;;;;;;;;;;;29.50;92.30;;;;;;1906735;75;20161;-91
2021/08/29 12:49:50;;;;;;;;;;;29.40;91.90;;;;;;1883099;76;20183;-91
2021/08/29 12:52:24;;;;;;;;;;;29.50;92.10;;;;;;1904078;75;20315;-92
2021/08/29 12:54:55;;;;;;;;;;;29.50;92.10;;;;;;1872948;76;20171;-91
2021/08/29 12:57:25;;;;;;;;;;;29.40;92.10;;;;;;1869869;76;20180;-92
2021/08/29 12:59:58;;;;;;;;;;;29.40;92.10;;;;;;1871797;76;20212;-92
2021/08/29 13:05:42;;;;;;;;;;;29.40;92.20;;;;;;1799675;78;20223;-91
2021/08/29 13:08:13;;;;;;;;;;;29.40;92.10;;;;;;1855410;76;20172;-92
2021/08/29 13:10:44;;;;;;;;;;;29.40;92.20;;;;;;1885385;76;20752;-91
2021/08/29 13:13:17;;;;;;;;;;;29.40;92.20;;;;;;1882134;76;20248;-90
2021/08/29 13:15:50;;;;;;;;;;;29.40;92.30;;;;;;1865562;77;20185;-90
2021/08/29 13:18:25;;;;;;;;;;;29.40;92.50;;;;;;1856413;76;20193;-90
2021/08/29 13:20:56;;;;;;;;;;;29.40;92.30;;;;;;1864819;77;20205;-91
2021/08/29 13:23:28;;;;;;;;;;;29.40;92.50;;;;;;1863103;75;20166;-91
2021/08/29 13:26:06;;;;;;;;;;;29.40;92.60;;;;;;1858868;77;20204;-91
2021/08/29 13:28:31;;;;;;;;;;;29.30;92.70;;;;;;1862937;77;20160;-90
2021/08/29 13:31:04;;;;;;;;;;;29.30;92.60;;;;;;1865064;76;20177;-91
2021/08/29 13:33:38;;;;;;;;;;;29.30;92.70;;;;;;1833730;76;20187;-92
2021/08/29 13:36:08;;;;;;;;;;;29.30;92.60;;;;;;1827842;77;20223;-91
2021/08/29 13:38:42;;;;;;;;;;;29.30;92.70;;;;;;1859929;77;20229;-91
2021/08/29 13:41:16;;;;;;;;;;;29.30;93.00;;;;;;1824374;77;20183;-92
2021/08/29 13:43:47;;;;;;;;;;;29.30;92.90;;;;;;1961679;72;20246;-92
2021/08/29 13:46:28;;;;;;;;;;;29.30;93.00;;;;;;1920653;75;20178;-92
2021/08/29 13:48:58;;;;;;;;;;;29.30;93.30;;;;;;1969847;72;20180;-91
2021/08/29 13:51:28;;;;;;;;;;;29.30;93.00;;;;;;1904714;74;20118;-91
2021/08/29 13:53:59;;;;;;;;;;;29.30;93.00;;;;;;1885669;76;20170;-91
2021/08/29 13:56:29;;;;;;;;;;;29.30;93.10;;;;;;1902051;75;20198;-93
2021/08/29 13:59:05;;;;;;;;;;;29.30;93.00;;;;;;1887212;75;20212;-92
2021/08/29 14:01:34;;;;;;;;;;;29.30;93.20;;;;;;1921481;75;20459;-92
2021/08/29 14:04:05;;;;;;;;;;;29.30;93.20;;;;;;1896013;74;20157;-91
2021/08/29 14:06:34;;;;;;;;;;;29.30;93.30;;;;;;1863741;75;20237;-92
2021/08/29 14:09:04;;;;;;;;;;;29.30;93.10;;;;;;1899909;75;20142;-92
2021/08/29 14:11:33;;;;;;;;;;;29.30;93.00;;;;;;1893380;75;20163;-91
2021/08/29 14:14:05;;;;;;;;;;;29.30;93.10;;;;;;1919479;75;20163;-92
2021/08/29 14:16:36;;;;;;;;;;;29.40;93.20;;;;;;1920828;75;20772;-91
2021/08/29 14:19:05;;;;;;;;;;;29.30;93.10;;;;;;1870899;77;20219;-91
2021/08/29 14:21:38;;;;;;;;;;;29.30;93.10;;;;;;1898853;76;20230;-91
2021/08/29 14:24:06;;;;;;;;;;;29.40;93.10;;;;;;1900139;74;20152;-91
2021/08/29 14:26:35;;;;;;;;;;;29.30;93.10;;;;;;1891204;76;20195;-90
2021/08/29 14:29:05;;;;;;;;;;;29.40;93.20;;;;;;1899286;75;20132;-92
2021/08/29 14:31:42;;;;;;;;;;;29.30;93.10;;;;;;1892332;76;20194;-92
2021/08/29 14:34:11;;;;;;;;;;;29.30;93.30;;;;;;1899365;76;20422;-92
2021/08/29 14:36:40;;;;;;;;;;;29.40;93.40;;;;;;1891593;76;20171;-90
2021/08/29 14:39:13;;;;;;;;;;;29.30;93.50;;;;;;1894574;76;20120;-92
2021/08/29 14:41:43;;;;;;;;;;;29.30;93.60;;;;;;1899163;76;20211;-91
2021/08/29 14:44:18;;;;;;;;;;;29.30;93.80;;;;;;1896106;76;20209;-92
2021/08/29 14:46:48;;;;;;;;;;;29.20;93.70;;;;;;1898230;76;20191;-92
2021/08/29 14:49:28;;;;;;;;;;;29.20;93.90;;;;;;1894668;76;20242;-93
2021/08/29 14:52:00;;;;;;;;;;;29.20;94.20;;;;;;1886625;76;20278;-93
2021/08/29 14:54:35;;;;;;;;;;;29.10;94.30;;;;;;1899965;76;20213;-92
2021/08/29 14:57:07;;;;;;;;;;;29.10;94.30;;;;;;1893330;76;20595;-94
2021/08/29 14:59:38;;;;;;;;;;;29.10;94.20;;;;;;1896238;76;20245;-93
2021/08/29 15:02:09;;;;;;;;;;;29.10;94.30;;;;;;1886162;75;20175;-93